sensor_id;sensor_type;location;lat;lon;timestamp;pressure;altitude;pressure_sealevel;temperature;humidity
50087;BME280;35967;50.718;7.050;2023-02-21T00:09:59;101276.66;;;9.22;86.71
50087;BME280;35967;50.718;7.050;2023-02-21T00:20:21;101272.28;;;9.37;86.11
50087;BME280;35967;50.718;7.050;2023-02-21T00:30:43;101280.03;;;9.26;86.26
50087;BME280;35967;50.718;7.050;2023-02-21T00:41:04;101284.41;;;9.16;86.26
50087;BME280;35967;50.718;7.050;2023-02-21T00:51:26;101290.38;;;9.20;86.55
50087;BME280;35967;50.718;7.050;2023-02-21T01:01:46;101280.94;;;9.19;86.74
50087;BME280;35967;50.718;7.050;2023-02-21T01:12:09;101292.09;;;9.18;87.35
50087;BME280;35967;50.718;7.050;2023-02-21T01:22:31;101281.88;;;9.07;86.84
50087;BME280;35967;50.718;7.050;2023-02-21T01:32:55;101271.50;;;9.25;86.48
50087;BME280;35967;50.718;7.050;2023-02-21T01:43:17;101274.09;;;9.21;86.20
50087;BME280;35967;50.718;7.050;2023-02-21T01:53:40;101278.38;;;9.25;86.47
50087;BME280;35967;50.718;7.050;2023-02-21T02:04:02;101269.84;;;9.18;87.16
50087;BME280;35967;50.718;7.050;2023-02-21T02:14:37;101260.44;;;9.15;86.95
50087;BME280;35967;50.718;7.050;2023-02-21T02:24:56;101266.53;;;8.99;87.35
50087;BME280;35967;50.718;7.050;2023-02-21T02:35:04;101257.06;;;9.07;87.31
50087;BME280;35967;50.718;7.050;2023-02-21T02:45:19;101253.59;;;9.11;87.31
50087;BME280;35967;50.718;7.050;2023-02-21T02:55:35;101245.00;;;9.19;86.86
50087;BME280;35967;50.718;7.050;2023-02-21T03:05:51;101233.03;;;9.19;85.89
50087;BME280;35967;50.718;7.050;2023-02-21T03:16:05;101231.34;;;9.17;85.40
50087;BME280;35967;50.718;7.050;2023-02-21T03:26:13;101232.16;;;9.17;84.82
50087;BME280;35967;50.718;7.050;2023-02-21T03:36:22;101240.69;;;9.21;84.50
50087;BME280;35967;50.718;7.050;2023-02-21T03:46:27;101228.78;;;9.12;84.43
50087;BME280;35967;50.718;7.050;2023-02-21T04:08:39;101214.16;;;9.25;84.02
50087;BME280;35967;50.718;7.050;2023-02-21T04:18:43;101210.78;;;9.13;84.04
50087;BME280;35967;50.718;7.050;2023-02-21T04:28:51;101210.78;;;9.15;83.82
50087;BME280;35967;50.718;7.050;2023-02-21T04:38:55;101217.69;;;9.08;84.21
50087;BME280;35967;50.718;7.050;2023-02-21T04:49:00;101213.38;;;9.09;84.20
50087;BME280;35967;50.718;7.050;2023-02-21T04:59:03;101202.25;;;9.11;84.21
50087;BME280;35967;50.718;7.050;2023-02-21T05:09:08;101203.09;;;9.12;83.85
50087;BME280;35967;50.718;7.050;2023-02-21T05:19:11;101211.72;;;9.02;83.98
50087;BME280;35967;50.718;7.050;2023-02-21T05:29:15;101203.31;;;8.81;84.35
50087;BME280;35967;50.718;7.050;2023-02-21T05:39:19;101202.41;;;8.87;84.26
50087;BME280;35967;50.718;7.050;2023-02-21T05:49:24;101192.31;;;8.56;84.86
50087;BME280;35967;50.718;7.050;2023-02-21T05:59:29;101202.63;;;8.52;84.39
50087;BME280;35967;50.718;7.050;2023-02-21T06:09:38;101201.78;;;8.36;84.53
50087;BME280;35967;50.718;7.050;2023-02-21T06:19:41;101207.88;;;8.04;85.30
50087;BME280;35967;50.718;7.050;2023-02-21T06:29:45;101201.00;;;8.16;85.21
50087;BME280;35967;50.718;7.050;2023-02-21T06:39:48;101212.06;;;8.27;84.04
50087;BME280;35967;50.718;7.050;2023-02-21T06:49:53;101218.06;;;8.21;84.68
50087;BME280;35967;50.718;7.050;2023-02-21T06:59:56;101219.78;;;8.29;84.43
50087;BME280;35967;50.718;7.050;2023-02-21T07:10:01;101228.41;;;8.03;84.47
50087;BME280;35967;50.718;7.050;2023-02-21T07:20:04;101221.53;;;8.20;84.64
50087;BME280;35967;50.718;7.050;2023-02-21T07:30:10;101221.50;;;8.24;84.44
50087;BME280;35967;50.718;7.050;2023-02-21T07:40:14;101231.72;;;8.30;84.22
50087;BME280;35967;50.718;7.050;2023-02-21T07:50:19;101223.16;;;8.34;84.92
50087;BME280;35967;50.718;7.050;2023-02-21T08:00:25;101218.84;;;8.53;84.99
50087;BME280;35967;50.718;7.050;2023-02-21T08:10:30;101219.69;;;8.43;85.32
50087;BME280;35967;50.718;7.050;2023-02-21T08:20:33;101223.94;;;8.59;84.31
50087;BME280;35967;50.718;7.050;2023-02-21T08:30:39;101223.09;;;8.56;85.03
50087;BME280;35967;50.718;7.050;2023-02-21T08:40:42;101226.41;;;8.81;84.11
50087;BME280;35967;50.718;7.050;2023-02-21T08:50:47;101228.91;;;8.92;84.28
50087;BME280;35967;50.718;7.050;2023-02-21T09:00:50;101212.63;;;8.96;84.11
50087;BME280;35967;50.718;7.050;2023-02-21T09:10:55;101211.66;;;9.11;86.56
50087;BME280;35967;50.718;7.050;2023-02-21T09:21:01;101200.38;;;9.32;87.44
50087;BME280;35967;50.718;7.050;2023-02-21T09:31:08;101190.13;;;9.26;88.30
50087;BME280;35967;50.718;7.050;2023-02-21T09:41:12;101189.03;;;9.56;87.79
50087;BME280;35967;50.718;7.050;2023-02-21T09:51:18;101189.84;;;9.60;87.08
50087;BME280;35967;50.718;7.050;2023-02-21T10:01:32;101186.41;;;9.64;87.74
50087;BME280;35967;50.718;7.050;2023-02-21T10:11:43;101168.88;;;10.00;88.44
50087;BME280;35967;50.718;7.050;2023-02-21T10:21:53;101177.97;;;10.29;87.09
50087;BME280;35967;50.718;7.050;2023-02-21T10:32:02;101171.16;;;10.22;86.70
50087;BME280;35967;50.718;7.050;2023-02-21T10:42:08;101170.25;;;10.29;85.71
50087;BME280;35967;50.718;7.050;2023-02-21T10:52:17;101164.75;;;10.57;85.80
50087;BME280;35967;50.718;7.050;2023-02-21T11:02:32;101155.22;;;10.62;85.11
50087;BME280;35967;50.718;7.050;2023-02-21T11:12:37;101131.94;;;11.25;83.28
50087;BME280;35967;50.718;7.050;2023-02-21T11:22:43;101119.66;;;11.39;81.55
50087;BME280;35967;50.718;7.050;2023-02-21T11:32:50;101105.31;;;11.71;80.83
50087;BME280;35967;50.718;7.050;2023-02-21T11:43:20;101093.00;;;11.86;78.36
50087;BME280;35967;50.718;7.050;2023-02-21T11:53:29;101074.38;;;12.51;76.76
50087;BME280;35967;50.718;7.050;2023-02-21T12:04:07;101064.97;;;12.85;75.80
50087;BME280;35967;50.718;7.050;2023-02-21T12:14:39;101047.75;;;12.84;74.49
50087;BME280;35967;50.718;7.050;2023-02-21T12:24:55;101027.03;;;13.18;73.91
50087;BME280;35967;50.718;7.050;2023-02-21T12:35:30;101008.38;;;13.08;73.91
50087;BME280;35967;50.718;7.050;2023-02-21T12:45:45;101006.16;;;13.87;74.58
50087;BME280;35967;50.718;7.050;2023-02-21T12:55:59;100992.56;;;13.81;73.01
50087;BME280;35967;50.718;7.050;2023-02-21T13:06:09;100976.19;;;13.80;72.28
50087;BME280;35967;50.718;7.050;2023-02-21T13:16:18;100960.47;;;13.86;71.69
50087;BME280;35967;50.718;7.050;2023-02-21T13:26:31;100955.81;;;13.98;72.13
50087;BME280;35967;50.718;7.050;2023-02-21T13:36:42;100941.59;;;14.11;71.13
50087;BME280;35967;50.718;7.050;2023-02-21T13:47:06;100931.53;;;14.02;71.41
50087;BME280;35967;50.718;7.050;2023-02-21T13:57:30;100920.38;;;14.00;71.60
50087;BME280;35967;50.718;7.050;2023-02-21T14:07:49;100900.09;;;14.40;72.01
50087;BME280;35967;50.718;7.050;2023-02-21T14:17:59;100897.09;;;14.77;69.74
50087;BME280;35967;50.718;7.050;2023-02-21T14:28:49;100889.56;;;14.70;70.23
50087;BME280;35967;50.718;7.050;2023-02-21T14:38:54;100887.41;;;13.78;72.26
50087;BME280;35967;50.718;7.050;2023-02-21T14:49:09;100879.88;;;13.70;72.72
50087;BME280;35967;50.718;7.050;2023-02-21T14:59:48;100885.31;;;13.63;73.99
50087;BME280;35967;50.718;7.050;2023-02-21T15:10:14;100887.34;;;13.53;75.44
50087;BME280;35967;50.718;7.050;2023-02-21T15:20:19;100876.41;;;13.43;75.98
50087;BME280;35967;50.718;7.050;2023-02-21T15:30:24;100870.53;;;13.38;76.31
50087;BME280;35967;50.718;7.050;2023-02-21T15:40:29;100871.94;;;13.18;76.78
50087;BME280;35967;50.718;7.050;2023-02-21T15:50:34;100870.56;;;13.08;77.22
50087;BME280;35967;50.718;7.050;2023-02-21T16:12:30;100862.44;;;12.90;78.18
50087;BME280;35967;50.718;7.050;2023-02-21T16:22:36;100852.53;;;12.75;79.18
50087;BME280;35967;50.718;7.050;2023-02-21T16:33:04;100857.25;;;12.59;79.65
50087;BME280;35967;50.718;7.050;2023-02-21T16:43:15;100858.63;;;12.41;79.86
50087;BME280;35967;50.718;7.050;2023-02-21T16:53:21;100861.81;;;12.18;80.60
50087;BME280;35967;50.718;7.050;2023-02-21T17:03:26;100868.81;;;12.12;80.22
50087;BME280;35967;50.718;7.050;2023-02-21T17:13:31;100880.81;;;11.77;81.18
50087;BME280;35967;50.718;7.050;2023-02-21T17:23:34;100885.44;;;11.63;81.16
50087;BME280;35967;50.718;7.050;2023-02-21T17:33:39;100898.84;;;12.15;82.24
50087;BME280;35967;50.718;7.050;2023-02-21T17:43:42;100908.53;;;11.28;82.30
50087;BME280;35967;50.718;7.050;2023-02-21T17:53:47;100915.97;;;11.01;82.55
50087;BME280;35967;50.718;7.050;2023-02-21T18:03:50;100913.47;;;10.95;82.52
50087;BME280;35967;50.718;7.050;2023-02-21T18:13:55;100920.88;;;10.68;83.22
50087;BME280;35967;50.718;7.050;2023-02-21T18:23:59;100911.38;;;10.70;82.29
50087;BME280;35967;50.718;7.050;2023-02-21T18:34:04;100910.94;;;10.47;82.59
50087;BME280;35967;50.718;7.050;2023-02-21T18:44:08;100915.06;;;10.57;80.80
50087;BME280;35967;50.718;7.050;2023-02-21T18:54:13;100907.69;;;10.34;81.49
50087;BME280;35967;50.718;7.050;2023-02-21T19:04:16;100898.31;;;10.33;80.64
50087;BME280;35967;50.718;7.050;2023-02-21T19:14:21;100894.88;;;10.32;79.45
50087;BME280;35967;50.718;7.050;2023-02-21T19:24:24;100900.16;;;10.23;78.52
50087;BME280;35967;50.718;7.050;2023-02-21T19:34:28;100904.69;;;10.08;78.32
50087;BME280;35967;50.718;7.050;2023-02-21T19:44:31;100902.16;;;10.07;78.67
50087;BME280;35967;50.718;7.050;2023-02-21T19:54:36;100898.06;;;9.93;78.78
50087;BME280;35967;50.718;7.050;2023-02-21T20:04:40;100891.22;;;9.94;78.21
50087;BME280;35967;50.718;7.050;2023-02-21T20:14:45;100894.06;;;9.77;77.77
50087;BME280;35967;50.718;7.050;2023-02-21T20:24:50;100887.78;;;9.93;79.23
50087;BME280;35967;50.718;7.050;2023-02-21T20:34:54;100896.78;;;8.97;81.56
50087;BME280;35967;50.718;7.050;2023-02-21T20:44:58;100888.91;;;9.11;80.99
50087;BME280;35967;50.718;7.050;2023-02-21T20:55:04;100892.16;;;9.26;79.24
50087;BME280;35967;50.718;7.050;2023-02-21T21:05:10;100879.41;;;9.20;77.56
50087;BME280;35967;50.718;7.050;2023-02-21T21:15:18;100868.78;;;8.77;77.71
50087;BME280;35967;50.718;7.050;2023-02-21T21:25:21;100872.13;;;8.84;77.70
50087;BME280;35967;50.718;7.050;2023-02-21T21:35:26;100861.22;;;8.65;77.96
50087;BME280;35967;50.718;7.050;2023-02-21T21:45:31;100863.03;;;8.57;78.05
50087;BME280;35967;50.718;7.050;2023-02-21T21:55:46;100856.38;;;8.34;78.23
50087;BME280;35967;50.718;7.050;2023-02-21T22:05:49;100837.66;;;8.24;77.80
50087;BME280;35967;50.718;7.050;2023-02-21T22:15:54;100819.09;;;8.00;78.53
50087;BME280;35967;50.718;7.050;2023-02-21T22:25:57;100826.44;;;7.27;82.21
50087;BME280;35967;50.718;7.050;2023-02-21T22:36:03;100798.13;;;7.46;82.21
50087;BME280;35967;50.718;7.050;2023-02-21T22:46:07;100791.38;;;7.34;80.84
50087;BME280;35967;50.718;7.050;2023-02-21T22:56:13;100779.59;;;7.09;81.61
50087;BME280;35967;50.718;7.050;2023-02-21T23:06:17;100769.31;;;7.17;79.84
50087;BME280;35967;50.718;7.050;2023-02-21T23:16:22;100767.59;;;7.18;79.71
50087;BME280;35967;50.718;7.050;2023-02-21T23:26:25;100751.47;;;7.02;79.02
50087;BME280;35967;50.718;7.050;2023-02-21T23:36:30;100745.44;;;7.15;78.29
50087;BME280;35967;50.718;7.050;2023-02-21T23:46:33;100731.78;;;7.13;77.92
50087;BME280;35967;50.718;7.050;2023-02-21T23:56:37;100725.22;;;6.67;79.84
